Abingdon, Iowa
Current Conditions -  °F | °C
As of 9:55 PM on Tuesday 21 Oct 2014 (Local Time) from KFFL Reporting Station
Clear Clear  
Wind Chill:   Ceiling: Unl
Heat Index:   Visibility: NA
Dew Point:   Wind: 10mph
Humidity: 81%   Direction: 90°E
Pressure: 30.21"   Gusts: NA
Location:  40.9883°N, 92.1215°W
Report Text: KFFL 220255Z AUTO 09009KT CLR 06/03 A3021 RMK AO2
Loading
Personal Weather Stations






























Interactive Weather Map
Tropical Storm Tracking
New forecast layout! Learn more

10-Day Weather Forecast

Advertisements
Track Severe Weather on mobile